Shasta, CA (96087)

3:54 AM PDT on September 22, 2014 (GMT -0700)
Shasta Fire Department | Change Station
CLOSE
Current Station
Personal Weather Station
Location: Shasta, CA
Elevation: 1053 ft
Nearby Weather Stations

Elev 1053 ft 40.60 °N, 122.49 °W | Updated 25 minutes ago

Clear
Clear
65.3 °F
Feels Like 65.3 °F
N
0.4
Wind Variable Wind from WSW
Gusts 0.4 mph

Today
High -- | Low -- °F
--% Chance of Precip.
Yesterday
High -- | Low -- °F
Precip. -- in
6:57 AM 7:06 PM
Waning Crescent, 3% visible
Pressure 29.95 in
Visibility 10.0 miles
Clouds Clear
Dew Point 55 °F
Humidity 68%
Rainfall 0.00 in
Snow Depth 0 in , 0 in , 1 in
UV 0 out of 12
Pollen 5.80 out of 12
Air Quality Not available.
Flu Activity Not available.
METAR KRDD 220953Z 00000KT 10SM CLR 18/13 A2997 RMK AO2 SLP142 T01830133

More Conditions Fewer Conditions

Pressure 29.95 in
Visibility 10.0 miles
Clouds Clear
Dew Point 55 °F
Humidity 68%
Rainfall 0.00 in
Snow Depth 0 in , 0 in , 1 in
UV 0 out of 12
Pollen 5.80 out of 12
Air Quality Not available.
Flu Activity Not available.
METAR KRDD 220953Z 00000KT 10SM CLR 18/13 A2997 RMK AO2 SLP142 T01830133

More Conditions Fewer Conditions

10-Day Weather Forecast

Almanac

Astronomy

Sep. 22, 2014 Rise Set
Actual Time 6:57 AM PDT 7:06 PM PDT
Civil Twilight 6:30 AM PDT 7:34 PM PDT
Nautical Twilight 5:58 AM PDT 8:06 PM PDT
Astronomical Twilight 5:25 AM PDT 8:38 PM PDT
Moon 5:31 AM PDT 6:17 PM PDT
Length of Visible Light 13h 03m
Length of Day
12h 09m
Tomorrow will be 2m 40s shorter.
Waning Crescent, 3% of the Moon is Illuminated
Today
Waning Crescent
Sep 24
New
Oct 1
First Quarter
Oct 8
Full
Oct 15
Last Quarter

Today's Extremes

State Highs State Lows

Community

WunderPhotos

Upload Photos

1,755,408 photos uploaded!

Nearby

Snow Depth

Station Depth Elevation
Fallen Leaf 0 in 6300 ft
Monitor Pass 0 in 8350 ft
Summit Meadow 1 in 9122 ft
Forestdale Creek 0 in 8029 ft
Carson Pass 10 in 8500 ft

Earthquake Activity

City Distance Mag. Time & Date
Cloverdale, California 123 miles 2.5 9:15 PM PDT
2014-09-20
Eureka, California 96 miles 3.1 1:33 PM PDT
2014-09-20
Minimum magnitude displayed is 2.5.

Coastal Water Temperatures

Place Temperature
No Stations Reporting

Nearby Weather Stations